createdAt,value
2017-09-21T00:01:50.892Z,12.50
2017-09-21T00:04:19.152Z,12.50
2017-09-21T00:06:46.628Z,12.50
2017-09-21T00:09:14.106Z,12.50
2017-09-21T00:11:41.593Z,12.50
2017-09-21T00:14:09.076Z,12.50
2017-09-21T00:16:36.564Z,12.50
2017-09-21T00:19:04.837Z,12.50
2017-09-21T00:21:32.414Z,12.50
2017-09-21T00:23:59.899Z,12.50
2017-09-21T00:26:27.579Z,12.50
2017-09-21T00:28:55.053Z,12.50
2017-09-21T00:31:23.417Z,12.40
2017-09-21T00:33:50.889Z,12.40
2017-09-21T00:36:19.881Z,12.40
2017-09-21T00:38:47.356Z,12.40
2017-09-21T00:41:14.860Z,12.40
2017-09-21T00:43:42.359Z,12.40
2017-09-21T00:46:09.855Z,12.40
2017-09-21T00:48:37.341Z,12.40
2017-09-21T00:51:05.601Z,12.50
2017-09-21T00:53:33.117Z,12.40
2017-09-21T00:56:00.633Z,12.50
2017-09-21T00:58:28.850Z,12.50
2017-09-21T01:00:57.095Z,12.50
2017-09-21T01:03:24.574Z,12.60
2017-09-21T01:05:52.181Z,12.50
2017-09-21T01:08:20.428Z,12.50
2017-09-21T01:10:48.686Z,12.40
2017-09-21T01:13:16.960Z,12.40
2017-09-21T01:15:44.432Z,12.40
2017-09-21T01:18:12.022Z,12.40
2017-09-21T01:20:39.553Z,12.40
2017-09-21T01:23:07.028Z,12.40
2017-09-21T01:25:35.382Z,12.40
2017-09-21T01:28:02.871Z,12.40
2017-09-21T01:30:31.121Z,12.40
2017-09-21T01:32:58.610Z,12.40
2017-09-21T01:35:26.083Z,12.20
2017-09-21T01:37:54.329Z,12.50
2017-09-21T01:40:21.795Z,12.50
2017-09-21T01:42:50.166Z,12.50
2017-09-21T01:45:17.639Z,12.40
2017-09-21T01:47:45.873Z,12.50
2017-09-21T01:50:13.381Z,12.50
2017-09-21T01:52:40.851Z,12.50
2017-09-21T01:55:08.352Z,12.50
2017-09-21T01:57:36.597Z,12.50
2017-09-21T02:00:04.861Z,12.50
2017-09-21T02:02:33.103Z,12.50
2017-09-21T02:05:01.356Z,12.50
2017-09-21T02:07:28.824Z,12.50
2017-09-21T02:09:56.293Z,12.50
2017-09-21T02:12:23.768Z,12.50
2017-09-21T02:14:52.014Z,12.50
2017-09-21T02:17:19.519Z,12.50
2017-09-21T02:19:47.761Z,12.50
2017-09-21T02:22:15.278Z,12.50
2017-09-21T02:24:42.765Z,12.50
2017-09-21T02:27:10.238Z,12.50
2017-09-21T02:29:37.742Z,12.50
2017-09-21T02:32:05.979Z,12.50
2017-09-21T02:34:33.457Z,12.40
2017-09-21T02:37:01.054Z,12.50
2017-09-21T02:39:28.531Z,12.40
2017-09-21T02:41:56.009Z,12.40
2017-09-21T02:44:23.601Z,12.40
2017-09-21T02:46:51.098Z,12.40
2017-09-21T02:49:18.577Z,12.30
2017-09-21T02:51:46.080Z,12.30
2017-09-21T02:54:13.564Z,12.30
2017-09-21T02:56:41.054Z,12.20
2017-09-21T02:59:08.538Z,12.10
2017-09-21T03:01:36.029Z,12.10
2017-09-21T03:04:05.019Z,11.90
2017-09-21T03:06:32.575Z,11.90
2017-09-21T03:09:00.081Z,11.90
2017-09-21T03:11:27.572Z,11.80
2017-09-21T03:13:55.047Z,11.70
2017-09-21T03:16:22.651Z,11.50
2017-09-21T03:18:50.123Z,11.60
2017-09-21T03:21:17.608Z,11.60
2017-09-21T03:23:45.108Z,11.50
2017-09-21T03:26:12.602Z,11.50
2017-09-21T03:28:40.852Z,11.10
2017-09-21T03:31:08.324Z,11.40
2017-09-21T03:33:35.797Z,11.30
2017-09-21T03:36:03.302Z,11.30
2017-09-21T03:38:30.780Z,11.30
2017-09-21T03:40:58.262Z,11.20
2017-09-21T03:43:25.757Z,11.20
2017-09-21T03:45:53.301Z,11.10
2017-09-21T03:48:20.778Z,11.10
2017-09-21T03:50:49.063Z,11.00
2017-09-21T03:53:17.331Z,11.00
2017-09-21T03:55:44.834Z,11.00
2017-09-21T03:58:12.318Z,11.10
2017-09-21T04:00:40.698Z,10.90
2017-09-21T04:03:08.183Z,10.90
2017-09-21T04:05:35.669Z,10.90
2017-09-21T04:08:03.163Z,10.90
2017-09-21T04:10:30.719Z,10.90
2017-09-21T04:12:58.234Z,10.90
2017-09-21T04:15:25.700Z,10.90
2017-09-21T04:17:53.196Z,10.80
2017-09-21T04:20:20.796Z,10.80
2017-09-21T04:22:48.298Z,10.80
2017-09-21T04:25:15.786Z,10.80
2017-09-21T04:27:44.051Z,10.70
2017-09-21T04:30:11.532Z,10.70
2017-09-21T04:32:39.045Z,10.70
2017-09-21T04:35:07.282Z,10.70
2017-09-21T04:37:34.770Z,10.70
2017-09-21T04:40:02.269Z,10.70
2017-09-21T04:42:29.750Z,10.70
2017-09-21T04:44:57.236Z,10.60
2017-09-21T04:47:24.728Z,10.60
2017-09-21T04:49:52.200Z,10.60
2017-09-21T04:52:19.681Z,10.60
2017-09-21T04:54:47.164Z,10.50
2017-09-21T04:57:14.639Z,10.60
2017-09-21T04:59:42.120Z,10.50
2017-09-21T05:02:09.696Z,10.50
2017-09-21T05:04:37.169Z,10.50
2017-09-21T05:07:04.650Z,10.50
2017-09-21T05:09:32.201Z,10.50
2017-09-21T05:11:59.678Z,10.50
2017-09-21T05:14:27.311Z,10.50
2017-09-21T05:16:54.843Z,10.50
2017-09-21T05:19:22.319Z,10.50
2017-09-21T05:21:49.815Z,10.60
2017-09-21T05:24:17.304Z,10.60
2017-09-21T05:26:44.811Z,10.60
2017-09-21T05:29:13.097Z,10.70
2017-09-21T05:31:41.352Z,10.70
2017-09-21T05:34:08.849Z,10.70
2017-09-21T05:36:36.331Z,10.70
2017-09-21T05:39:03.828Z,10.80
2017-09-21T05:41:31.350Z,10.80
2017-09-21T05:43:58.830Z,10.90
2017-09-21T05:46:26.333Z,10.90
2017-09-21T05:48:53.880Z,11.00
2017-09-21T05:51:22.149Z,10.90
2017-09-21T05:53:49.646Z,11.10
2017-09-21T05:56:17.202Z,11.20
2017-09-21T05:58:44.682Z,11.30
2017-09-21T06:01:12.165Z,11.40
2017-09-21T06:03:39.653Z,11.40
2017-09-21T06:06:07.125Z,11.50
2017-09-21T06:08:34.761Z,11.60
2017-09-21T06:11:03.014Z,11.80
2017-09-21T06:13:30.493Z,11.70
2017-09-21T06:15:57.992Z,11.90
2017-09-21T06:18:25.483Z,11.90
2017-09-21T06:20:53.107Z,12.00
2017-09-21T06:23:20.606Z,12.10
2017-09-21T06:25:48.097Z,12.20
2017-09-21T06:28:15.622Z,12.30
2017-09-21T06:30:43.092Z,12.40
2017-09-21T06:33:10.620Z,12.40
2017-09-21T06:35:38.882Z,12.50
2017-09-21T06:38:06.443Z,12.50
2017-09-21T06:40:35.843Z,12.60
2017-09-21T06:43:03.366Z,12.70
2017-09-21T06:45:30.856Z,12.70
2017-09-21T06:47:58.337Z,12.80
2017-09-21T06:50:25.833Z,12.80
2017-09-21T06:52:53.414Z,12.90
2017-09-21T06:55:20.917Z,13.00
2017-09-21T06:57:48.475Z,13.10
2017-09-21T07:00:15.977Z,13.10
2017-09-21T07:02:43.460Z,13.10
2017-09-21T07:05:11.019Z,13.10
2017-09-21T07:07:38.495Z,13.20
2017-09-21T07:10:05.982Z,13.40
2017-09-21T07:12:33.477Z,13.40
2017-09-21T07:15:00.944Z,13.50
2017-09-21T07:17:28.486Z,13.60
2017-09-21T07:19:55.985Z,13.70
2017-09-21T07:22:24.218Z,13.90
2017-09-21T07:24:51.721Z,13.90
2017-09-21T07:27:19.204Z,14.00
2017-09-21T07:29:46.812Z,14.20
2017-09-21T07:32:15.070Z,14.60
2017-09-21T07:34:42.585Z,14.60
2017-09-21T07:37:10.086Z,14.70
2017-09-21T07:39:37.572Z,14.80
2017-09-21T07:42:05.833Z,15.00
2017-09-21T07:44:33.441Z,15.00
2017-09-21T07:47:00.920Z,15.10
2017-09-21T07:49:28.500Z,15.30
2017-09-21T07:51:55.994Z,15.50
2017-09-21T07:54:23.474Z,15.40
2017-09-21T07:56:51.083Z,15.60
2017-09-21T07:59:19.345Z,15.80
2017-09-21T08:01:46.862Z,16.00
2017-09-21T08:04:14.450Z,16.20
2017-09-21T08:06:42.705Z,16.70
2017-09-21T08:09:10.310Z,16.60
2017-09-21T08:11:37.801Z,16.90
2017-09-21T08:14:05.265Z,17.20
2017-09-21T08:16:32.766Z,17.30
2017-09-21T08:19:00.239Z,17.20
2017-09-21T08:21:27.801Z,17.00
2017-09-21T08:23:55.297Z,17.10
2017-09-21T08:26:22.772Z,17.00
2017-09-21T08:28:50.262Z,17.20
2017-09-21T08:31:17.866Z,17.30
2017-09-21T08:33:45.346Z,17.50
2017-09-21T08:36:12.817Z,17.60
2017-09-21T08:38:40.329Z,17.30
2017-09-21T08:41:08.572Z,17.30
2017-09-21T08:43:36.074Z,17.20
2017-09-21T08:46:03.616Z,17.20
2017-09-21T08:48:31.106Z,17.20
2017-09-21T08:50:58.754Z,17.00
2017-09-21T08:53:27.000Z,18.00
2017-09-21T08:55:54.698Z,17.90
2017-09-21T08:58:22.215Z,18.30
2017-09-21T09:00:49.711Z,18.40
2017-09-21T09:03:17.960Z,18.50
2017-09-21T09:05:45.478Z,18.40
2017-09-21T09:08:12.962Z,18.30
2017-09-21T09:10:40.481Z,18.20
2017-09-21T09:13:07.969Z,18.20
2017-09-21T09:15:35.534Z,18.20
2017-09-21T09:18:03.804Z,18.20
2017-09-21T09:20:31.340Z,18.10
2017-09-21T09:22:59.173Z,18.20
2017-09-21T09:25:26.692Z,18.40
2017-09-21T09:27:54.181Z,18.60
2017-09-21T09:30:22.548Z,19.00
2017-09-21T09:32:50.050Z,19.00
2017-09-21T09:35:17.598Z,19.10
2017-09-21T09:37:45.185Z,19.10
2017-09-21T09:40:12.662Z,19.50
2017-09-21T09:42:40.154Z,19.70
2017-09-21T09:45:07.669Z,19.90
2017-09-21T09:47:35.144Z,20.20
2017-09-21T09:50:02.644Z,20.20
2017-09-21T09:52:30.923Z,20.30
2017-09-21T09:54:58.409Z,20.20
2017-09-21T09:57:25.881Z,20.80
2017-09-21T09:59:53.495Z,21.50
2017-09-21T10:02:20.969Z,22.20
2017-09-21T10:04:48.447Z,22.00
2017-09-21T10:07:15.934Z,21.90
2017-09-21T10:09:43.401Z,22.30
2017-09-21T10:12:11.663Z,23.10
2017-09-21T10:14:39.128Z,23.10
2017-09-21T10:17:06.592Z,22.70
2017-09-21T10:19:34.220Z,21.70
2017-09-21T10:22:01.727Z,21.20
2017-09-21T10:24:29.185Z,21.50
2017-09-21T10:26:56.669Z,22.70
2017-09-21T10:29:24.130Z,24.30
2017-09-21T10:31:51.587Z,25.60
2017-09-21T10:34:20.010Z,27.90
2017-09-21T10:36:47.507Z,27.80
2017-09-21T10:39:14.981Z,29.40
2017-09-21T10:41:42.462Z,30.50
2017-09-21T10:44:09.950Z,31.10
2017-09-21T10:46:37.564Z,30.70
2017-09-21T10:49:05.031Z,30.00
2017-09-21T10:51:32.522Z,28.90
2017-09-21T10:54:00.111Z,28.10
2017-09-21T10:56:27.588Z,27.40
2017-09-21T10:58:55.051Z,28.10
2017-09-21T11:01:22.542Z,28.60
2017-09-21T11:03:50.016Z,29.00
2017-09-21T11:06:17.504Z,29.10
2017-09-21T11:08:45.341Z,29.80
2017-09-21T11:11:12.811Z,29.50
2017-09-21T11:13:41.088Z,26.00
2017-09-21T11:16:08.624Z,26.00
2017-09-21T11:18:36.867Z,23.30
2017-09-21T11:21:04.409Z,23.20
2017-09-21T11:23:31.867Z,22.50
2017-09-21T11:26:00.111Z,21.10
2017-09-21T11:28:27.605Z,21.10
2017-09-21T11:30:55.084Z,20.30
2017-09-21T11:33:22.567Z,20.20
2017-09-21T11:38:49.856Z,20.00
2017-09-21T11:41:17.344Z,20.10
2017-09-21T11:43:44.816Z,20.10
2017-09-21T11:46:12.330Z,20.10
2017-09-21T11:48:40.566Z,19.60
2017-09-21T11:51:08.052Z,19.60
2017-09-21T11:53:35.549Z,19.40
2017-09-21T11:56:03.044Z,19.30
2017-09-21T11:58:30.591Z,19.10
2017-09-21T12:00:58.095Z,18.90
2017-09-21T12:03:25.567Z,18.70
2017-09-21T12:05:53.043Z,18.50
2017-09-21T12:08:20.550Z,18.50
2017-09-21T12:10:48.016Z,18.30
2017-09-21T12:13:15.505Z,18.00
2017-09-21T12:15:42.993Z,18.10
2017-09-21T12:18:10.532Z,18.10
2017-09-21T12:20:38.140Z,18.10
2017-09-21T12:23:05.619Z,18.00
2017-09-21T12:25:33.157Z,18.00
2017-09-21T12:28:00.656Z,18.00
2017-09-21T12:30:28.967Z,17.70
2017-09-21T12:32:56.441Z,17.70
2017-09-21T12:35:24.810Z,17.40
2017-09-21T12:37:52.287Z,17.30
2017-09-21T12:40:19.761Z,17.30
2017-09-21T12:42:47.357Z,17.30
2017-09-21T12:45:14.829Z,17.30
2017-09-21T12:47:42.318Z,17.30
2017-09-21T12:50:09.790Z,17.30
2017-09-21T12:52:37.300Z,17.30
2017-09-21T12:55:04.776Z,17.20
2017-09-21T12:57:32.353Z,17.10
2017-09-21T12:59:59.846Z,17.20
2017-09-21T13:02:27.311Z,17.30
2017-09-21T13:04:54.952Z,17.20
2017-09-21T13:07:23.499Z,17.20
2017-09-21T13:09:50.972Z,17.10
2017-09-21T13:12:18.454Z,17.30
2017-09-21T13:14:45.925Z,17.40
2017-09-21T13:17:13.403Z,17.40
2017-09-21T13:19:40.997Z,17.30
2017-09-21T13:22:08.470Z,17.30
2017-09-21T13:24:35.949Z,17.50
2017-09-21T13:27:03.468Z,17.50
2017-09-21T13:29:30.943Z,17.40
2017-09-21T13:31:58.409Z,17.30
2017-09-21T13:34:25.913Z,17.30
2017-09-21T13:36:53.445Z,17.30
2017-09-21T13:39:21.013Z,17.30
2017-09-21T13:41:48.527Z,17.30
2017-09-21T13:44:16.000Z,17.40
2017-09-21T13:46:44.272Z,17.60
2017-09-21T13:49:11.759Z,17.60
2017-09-21T13:51:39.363Z,17.80
2017-09-21T13:54:07.625Z,17.70
2017-09-21T13:56:36.069Z,17.70
2017-09-21T13:59:03.666Z,17.60
2017-09-21T14:01:31.151Z,17.30
2017-09-21T14:03:58.622Z,17.40
2017-09-21T14:06:26.869Z,17.30
2017-09-21T14:08:54.415Z,17.20
2017-09-21T14:11:21.889Z,17.20
2017-09-21T14:13:50.171Z,17.20
2017-09-21T14:16:17.644Z,17.20
2017-09-21T14:18:45.238Z,17.20
2017-09-21T14:21:12.694Z,17.10
2017-09-21T14:23:40.151Z,17.10
2017-09-21T14:26:07.652Z,17.00
2017-09-21T14:28:35.144Z,17.10
2017-09-21T14:31:02.748Z,17.20
2017-09-21T14:33:30.236Z,17.20
2017-09-21T14:35:58.480Z,17.00
2017-09-21T14:38:25.966Z,17.00
2017-09-21T14:40:53.563Z,16.90
2017-09-21T14:43:21.048Z,16.90
2017-09-21T14:45:48.538Z,16.90
2017-09-21T14:48:16.026Z,16.90
2017-09-21T14:50:43.515Z,17.00
2017-09-21T14:53:11.109Z,16.90
2017-09-21T14:55:38.559Z,17.00
2017-09-21T14:58:06.055Z,16.90
2017-09-21T15:00:33.545Z,17.00
2017-09-21T15:03:01.016Z,17.10
2017-09-21T15:05:28.515Z,17.10
2017-09-21T15:07:56.010Z,17.10
2017-09-21T15:10:24.246Z,17.10
2017-09-21T15:12:51.825Z,17.10
2017-09-21T15:15:19.284Z,16.90
2017-09-21T15:17:47.644Z,16.90
2017-09-21T15:20:15.139Z,16.80
2017-09-21T15:22:42.618Z,16.80
2017-09-21T15:25:10.130Z,16.70
2017-09-21T15:27:37.584Z,16.60
2017-09-21T15:30:05.067Z,16.60
2017-09-21T15:32:32.658Z,16.70
2017-09-21T15:35:00.127Z,16.80
2017-09-21T15:37:27.628Z,16.70
2017-09-21T15:39:55.219Z,16.60
2017-09-21T15:42:22.711Z,16.60
2017-09-21T15:44:50.207Z,16.70
2017-09-21T15:47:17.708Z,16.60
2017-09-21T15:49:45.216Z,16.70
2017-09-21T15:52:12.696Z,16.70
2017-09-21T15:54:40.345Z,16.60
2017-09-21T15:57:08.718Z,16.60
2017-09-21T15:59:36.345Z,16.60
2017-09-21T16:02:04.590Z,16.50
2017-09-21T16:04:32.084Z,16.40
2017-09-21T16:06:59.677Z,16.30
2017-09-21T16:09:27.152Z,16.40
2017-09-21T16:11:54.617Z,16.20
2017-09-21T16:14:22.111Z,16.10
2017-09-21T16:16:49.580Z,16.10
2017-09-21T16:19:17.085Z,16.10
2017-09-21T16:21:44.622Z,16.00
2017-09-21T16:24:12.084Z,15.90
2017-09-21T16:26:40.315Z,15.80
2017-09-21T16:29:08.139Z,15.80
2017-09-21T16:31:35.618Z,15.80
2017-09-21T16:34:03.084Z,15.80
2017-09-21T16:36:31.687Z,15.80
2017-09-21T16:39:00.319Z,15.80
2017-09-21T16:41:27.818Z,15.70
2017-09-21T16:43:55.350Z,15.70
2017-09-21T16:46:22.836Z,15.70
2017-09-21T16:48:50.392Z,15.70
2017-09-21T16:51:18.626Z,15.60
2017-09-21T16:53:46.108Z,15.50
2017-09-21T16:56:13.721Z,15.60
2017-09-21T16:58:41.198Z,15.60
2017-09-21T17:01:08.759Z,15.60
2017-09-21T17:03:36.985Z,15.40
2017-09-21T17:06:04.601Z,15.40
2017-09-21T17:08:32.172Z,15.20
2017-09-21T17:10:59.696Z,15.40
2017-09-21T17:13:27.242Z,15.30
2017-09-21T17:15:55.604Z,15.30
2017-09-21T17:18:23.098Z,15.30
2017-09-21T17:20:50.574Z,15.40
2017-09-21T17:23:18.130Z,15.40
2017-09-21T17:25:46.410Z,15.40
2017-09-21T17:28:13.905Z,15.40
2017-09-21T17:30:41.374Z,15.40
2017-09-21T17:33:08.838Z,15.40
2017-09-21T17:35:37.241Z,15.40
2017-09-21T17:38:04.721Z,15.40
2017-09-21T17:40:32.261Z,15.20
2017-09-21T17:43:00.516Z,15.00
2017-09-21T17:45:28.166Z,15.10
2017-09-21T17:47:55.647Z,15.10
2017-09-21T17:50:23.131Z,15.00
2017-09-21T17:52:50.714Z,14.80
2017-09-21T17:55:18.208Z,14.70
2017-09-21T17:57:45.795Z,14.80
2017-09-21T18:00:13.274Z,14.80
2017-09-21T18:02:40.746Z,14.70
2017-09-21T18:05:08.242Z,14.80
2017-09-21T18:07:35.725Z,14.60
2017-09-21T18:10:03.219Z,14.60
2017-09-21T18:12:30.685Z,14.50
2017-09-21T18:14:58.278Z,14.50
2017-09-21T18:17:25.750Z,14.60
2017-09-21T18:19:53.230Z,14.50
2017-09-21T18:22:20.833Z,14.60
2017-09-21T18:24:48.303Z,14.50
2017-09-21T18:27:15.806Z,14.40
2017-09-21T18:29:43.311Z,14.20
2017-09-21T18:32:11.564Z,14.30
2017-09-21T18:34:39.025Z,14.30
2017-09-21T18:37:06.516Z,14.30
2017-09-21T18:39:34.223Z,14.20
2017-09-21T18:42:01.699Z,14.20
2017-09-21T18:44:29.253Z,14.10
2017-09-21T18:46:56.760Z,14.20
2017-09-21T18:49:24.999Z,14.10
2017-09-21T18:51:52.482Z,14.10
2017-09-21T18:54:20.720Z,14.00
2017-09-21T18:56:48.272Z,14.00
2017-09-21T18:59:15.771Z,13.90
2017-09-21T19:01:43.247Z,14.00
2017-09-21T19:04:10.772Z,13.90
2017-09-21T19:06:38.283Z,13.90
2017-09-21T19:09:05.784Z,13.80
2017-09-21T19:11:33.299Z,13.80
2017-09-21T19:14:00.788Z,13.70
2017-09-21T19:16:28.398Z,13.80
2017-09-21T19:18:55.904Z,13.80
2017-09-21T19:21:23.397Z,13.80
2017-09-21T19:23:50.909Z,13.70
2017-09-21T19:26:18.409Z,13.70
2017-09-21T19:28:46.754Z,13.70
2017-09-21T19:31:14.357Z,13.60
2017-09-21T19:33:41.864Z,13.70
2017-09-21T19:36:09.371Z,13.70
2017-09-21T19:38:37.644Z,13.70
2017-09-21T19:41:05.253Z,13.60
2017-09-21T19:43:33.559Z,13.70
2017-09-21T19:46:01.237Z,13.70
2017-09-21T19:48:29.602Z,13.60
2017-09-21T19:50:57.071Z,13.60
2017-09-21T19:53:24.556Z,13.60
2017-09-21T19:55:52.132Z,13.60
2017-09-21T19:58:20.406Z,13.70
2017-09-21T20:00:47.887Z,13.70
2017-09-21T20:03:15.431Z,13.60
2017-09-21T20:05:42.928Z,13.60
2017-09-21T20:08:10.425Z,13.50
2017-09-21T20:10:37.945Z,13.50
2017-09-21T20:13:05.429Z,13.50
2017-09-21T20:15:33.062Z,13.50
2017-09-21T20:18:01.319Z,13.50
2017-09-21T20:20:28.891Z,13.50
2017-09-21T20:22:57.267Z,13.50
2017-09-21T20:25:24.768Z,13.50
2017-09-21T20:27:53.107Z,13.50
2017-09-21T20:30:21.371Z,13.40
2017-09-21T20:32:48.878Z,13.40
2017-09-21T20:35:17.140Z,13.40
2017-09-21T20:37:44.629Z,13.40
2017-09-21T20:40:12.260Z,13.40
2017-09-21T20:42:39.726Z,13.40
2017-09-21T20:45:07.970Z,13.20
2017-09-21T20:47:35.453Z,13.20
2017-09-21T20:50:03.042Z,13.20
2017-09-21T20:52:30.541Z,13.20
2017-09-21T20:54:58.804Z,13.10
2017-09-21T20:57:26.302Z,13.00
2017-09-21T20:59:54.555Z,12.90
2017-09-21T21:02:22.066Z,12.90
2017-09-21T21:04:49.549Z,12.90
2017-09-21T21:07:17.011Z,12.90
2017-09-21T21:09:44.509Z,13.00
2017-09-21T21:12:11.995Z,12.90
2017-09-21T21:14:39.497Z,12.80
2017-09-21T21:17:06.977Z,12.80
2017-09-21T21:19:58.210Z,12.70
2017-09-21T21:22:25.717Z,12.70
2017-09-21T21:24:53.195Z,12.70
2017-09-21T21:27:20.713Z,12.60
2017-09-21T21:29:48.189Z,12.60
2017-09-21T21:32:15.739Z,12.60
2017-09-21T21:34:43.221Z,12.60
2017-09-21T21:37:10.792Z,12.50
2017-09-21T21:39:39.194Z,12.50
2017-09-21T21:42:06.795Z,12.40
2017-09-21T21:44:34.320Z,12.50
2017-09-21T21:47:01.810Z,12.80
2017-09-21T21:49:29.427Z,12.50
2017-09-21T21:51:56.922Z,12.50
2017-09-21T21:54:24.525Z,12.50
2017-09-21T21:56:52.786Z,12.20
2017-09-21T21:59:20.290Z,12.50
2017-09-21T22:01:48.556Z,12.50
2017-09-21T22:04:16.084Z,12.50
2017-09-21T22:06:43.591Z,12.50
2017-09-21T22:09:11.120Z,12.50
2017-09-21T22:11:38.629Z,12.50
2017-09-21T22:14:06.111Z,12.30
2017-09-21T22:16:33.622Z,12.50
2017-09-21T22:19:02.928Z,12.50
2017-09-21T22:21:31.128Z,12.50
2017-09-21T22:23:58.735Z,12.50
2017-09-21T22:26:26.213Z,12.20
2017-09-21T22:28:53.705Z,12.20
2017-09-21T22:31:21.297Z,11.80
2017-09-21T22:33:48.786Z,12.00
2017-09-21T22:36:16.269Z,12.00
2017-09-21T22:38:44.546Z,12.00
2017-09-21T22:41:12.040Z,12.00
2017-09-21T22:43:39.540Z,12.00
2017-09-21T22:46:07.026Z,12.00
2017-09-21T22:48:35.308Z,12.00
2017-09-21T22:51:02.855Z,12.00
2017-09-21T22:53:30.369Z,12.00
2017-09-21T22:55:57.872Z,12.00
2017-09-21T22:58:26.273Z,12.00
2017-09-21T23:00:53.760Z,12.00
2017-09-21T23:03:21.266Z,12.00
2017-09-21T23:05:49.566Z,12.00
2017-09-21T23:08:17.825Z,12.00
2017-09-21T23:10:45.351Z,12.00
2017-09-21T23:13:13.649Z,12.00
2017-09-21T23:15:42.839Z,11.90
2017-09-21T23:18:10.322Z,11.90
2017-09-21T23:20:37.840Z,11.90
2017-09-21T23:23:05.331Z,11.90
2017-09-21T23:25:33.622Z,11.90
2017-09-21T23:28:02.009Z,11.90
2017-09-21T23:30:29.548Z,11.90
2017-09-21T23:32:57.045Z,11.90
2017-09-21T23:35:24.579Z,11.90
2017-09-21T23:37:53.585Z,11.90
2017-09-21T23:40:21.995Z,11.90
2017-09-21T23:42:49.472Z,11.90
2017-09-21T23:45:16.958Z,11.90
2017-09-21T23:47:44.478Z,11.90
2017-09-21T23:50:12.732Z,11.90
2017-09-21T23:52:40.223Z,11.80
2017-09-21T23:55:07.837Z,11.80
2017-09-21T23:57:36.088Z,11.80
